Maberry, Arkansas
Current Conditions -  °F | °C
As of 10:56 AM on Thursday 30 Oct 2014 (Local Time) from KSRC Reporting Station
Clear Clear  
Wind Chill: 16°   Ceiling: Unl
Heat Index: 16°   Visibility: 10mi
Dew Point:   Wind: 3mph
Humidity: 55%   Direction: 130°SE
Pressure: 30.17"   Gusts: NA
Location:  35.03°N, 91.2263°W
Report Text: KSRC 301556Z AUTO 13003KT 10SM CLR 16/07 A3017 RMK AO2 SLP223 T01560067 TSNO
Loading
Personal Weather Stations






























Interactive Weather Map
Tropical Storm Tracking
New forecast layout! Learn more

10-Day Weather Forecast

Advertisements
Track Severe Weather on mobile